This is the latest recevied weather packets stored in our database for station/object EB1HRW. If no packets are shown the sender has not sent any weather packets the latest 10 day(s).
| Time | Temp. | Humidity | Pressure | Rain* | Wind** | Luminosity | Snow |
|---|---|---|---|---|---|---|---|
| 1777600742 | 12.78° C | 83% | 1017.4 hPa | 0 mm | - | - | - |
| 1777599843 | 12.78° C | 82% | 1017.5 hPa | 0 mm | - | - | - |
| 1777598943 | 12.78° C | 83% | 1017.5 hPa | 0 mm | - | - | - |
| 1777598042 | 12.78° C | 83% | 1017.6 hPa | 0 mm | - | - | - |
| 1777597143 | 12.78° C | 84% | 1017.6 hPa | 0 mm | - | - | - |
| 1777595343 | 13.33° C | 84% | 1017.7 hPa | 0 mm | - | - | - |
| 1777594441 | 13.33° C | 84% | 1017.7 hPa | 0 mm | - | - | - |
| 1777593542 | 13.33° C | 84% | 1017.6 hPa | 0 mm | - | - | - |
| 1777592643 | 13.33° C | 84% | 1017.7 hPa | 0 mm | - | - | - |
| 1777591741 | 13.33° C | 83% | 1017.7 hPa | 0 mm | - | - | - |
| 1777590842 | 13.33° C | 83% | 1017.6 hPa | 0 mm | - | - | - |
| 1777589942 | 13.33° C | 83% | 1017.6 hPa | 0 mm | - | - | - |
| 1777589043 | 13.89° C | 83% | 1017.5 hPa | 0 mm | - | - | - |
| 1777588142 | 13.89° C | 83% | 1017.6 hPa | 0 mm | - | - | - |
| 1777583642 | 14.44° C | 81% | 1017.6 hPa | 0 mm | - | - | - |
| 1777581844 | 14.44° C | 80% | 1017.4 hPa | 0 mm | - | - | - |
| 1777580996 | 14.44° C | 79% | 1017.3 hPa | 0 mm | - | - | - |
| 1777580308 | 14.44° C | 78% | 1017.2 hPa | 0 mm | - | - | - |
| 1777579704 | 14.44° C | 79% | 1017 hPa | 0 mm | - | - | - |
| 1777578804 | 14.44° C | 79% | 1016.9 hPa | 0 mm | - | - | - |
| 1777577904 | 15° C | 77% | 1016.8 hPa | 0 mm | - | - | - |
| 1777577005 | 15.56° C | 74% | 1016.5 hPa | 0 mm | - | - | - |
| 1777576105 | 16.11° C | 68% | 1016.4 hPa | 0 mm | - | - | - |
| 1777575204 | 16.67° C | 65% | 1016.3 hPa | 0 mm | - | - | - |
| 1777574304 | 17.22° C | 64% | 1016.4 hPa | 0 mm | - | - | - |
* Rain latest hour (hover to see other rain measurements)
** Current wind speed in m/s (hover to see current wind gust speed)